createdAt,value
2018-11-26T00:01:28.319Z,3.03
2018-11-26T00:03:58.695Z,2.67
2018-11-26T00:06:28.881Z,2.30
2018-11-26T00:08:59.399Z,2.33
2018-11-26T00:11:35.798Z,2.10
2018-11-26T00:14:06.363Z,3.20
2018-11-26T00:16:36.654Z,2.00
2018-11-26T00:19:07.262Z,2.30
2018-11-26T00:21:37.508Z,2.37
2018-11-26T00:24:08.078Z,2.07
2018-11-26T00:26:38.421Z,2.40
2018-11-26T00:29:08.745Z,2.20
2018-11-26T00:31:39.175Z,2.60
2018-11-26T00:34:09.930Z,2.07
2018-11-26T00:36:40.372Z,2.60
2018-11-26T00:39:12.781Z,2.57
2018-11-26T00:41:43.263Z,2.30
2018-11-26T00:44:13.472Z,2.90
2018-11-26T00:46:43.823Z,2.43
2018-11-26T00:49:14.118Z,4.50
2018-11-26T00:51:44.699Z,3.73
2018-11-26T00:54:14.817Z,3.63
2018-11-26T00:56:45.279Z,3.53
2018-11-26T00:59:15.691Z,3.37
2018-11-26T01:01:46.128Z,2.80
2018-11-26T01:04:17.135Z,3.33
2018-11-26T01:06:47.585Z,3.47
2018-11-26T01:09:18.057Z,3.57
2018-11-26T01:11:48.428Z,3.10
2018-11-26T01:14:24.337Z,3.23
2018-11-26T01:16:54.867Z,3.87
2018-11-26T01:19:25.294Z,3.93
2018-11-26T01:21:55.616Z,4.03
2018-11-26T01:24:25.984Z,4.30
2018-11-26T01:26:56.469Z,4.40
2018-11-26T01:29:26.911Z,4.30
2018-11-26T01:31:57.305Z,3.93
2018-11-26T01:34:27.608Z,4.37
2018-11-26T01:36:58.047Z,3.93
2018-11-26T01:39:28.387Z,3.00
2018-11-26T01:41:58.862Z,3.23
2018-11-26T01:44:29.105Z,5.00
2018-11-26T01:46:59.492Z,2.77
2018-11-26T01:49:29.903Z,2.70
2018-11-26T01:52:00.831Z,2.90
2018-11-26T01:54:30.940Z,2.90
2018-11-26T01:57:01.214Z,2.60
2018-11-26T01:59:31.401Z,2.90
2018-11-26T02:02:01.768Z,2.60
2018-11-26T02:04:31.916Z,3.17
2018-11-26T02:07:02.205Z,3.30
2018-11-26T02:09:32.430Z,3.10
2018-11-26T02:12:02.681Z,2.80
2018-11-26T02:14:32.868Z,3.87
2018-11-26T02:17:03.200Z,3.10
2018-11-26T02:19:33.477Z,3.33
2018-11-26T02:22:03.899Z,3.27
2018-11-26T02:24:34.435Z,3.10
2018-11-26T02:27:04.804Z,3.13
2018-11-26T02:29:35.096Z,2.67
2018-11-26T02:32:05.307Z,3.70
2018-11-26T02:34:35.926Z,3.37
2018-11-26T02:37:06.515Z,2.40
2018-11-26T02:39:36.909Z,2.33
2018-11-26T02:42:07.336Z,2.20
2018-11-26T02:44:37.619Z,2.63
2018-11-26T02:47:08.279Z,2.00
2018-11-26T02:49:38.839Z,2.63
2018-11-26T02:52:09.253Z,2.33
2018-11-26T02:54:39.622Z,2.03
2018-11-26T02:57:09.930Z,2.90
2018-11-26T02:59:40.216Z,2.13
2018-11-26T03:02:10.561Z,2.53
2018-11-26T03:04:41.082Z,2.60
2018-11-26T03:07:11.528Z,2.27
2018-11-26T03:09:41.977Z,1.73
2018-11-26T03:12:12.520Z,2.20
2018-11-26T03:14:42.770Z,2.10
2018-11-26T03:17:13.218Z,2.67
2018-11-26T03:19:43.405Z,2.20
2018-11-26T03:22:13.770Z,2.13
2018-11-26T03:24:44.142Z,2.03
2018-11-26T03:27:14.669Z,2.37
2018-11-26T03:29:44.936Z,2.50
2018-11-26T03:32:15.276Z,2.77
2018-11-26T03:34:45.591Z,2.47
2018-11-26T03:37:15.996Z,2.40
2018-11-26T03:39:46.352Z,2.40
2018-11-26T03:42:16.847Z,2.77
2018-11-26T03:44:47.148Z,2.83
2018-11-26T03:47:17.435Z,2.80
2018-11-26T03:49:47.841Z,2.63
2018-11-26T03:52:18.300Z,3.03
2018-11-26T03:54:48.674Z,2.90
2018-11-26T03:57:19.104Z,3.37
2018-11-26T03:59:49.439Z,3.67
2018-11-26T04:02:20.009Z,3.10
2018-11-26T04:04:50.132Z,3.27
2018-11-26T04:07:20.527Z,3.50
2018-11-26T04:09:50.962Z,3.83
2018-11-26T04:12:21.157Z,3.60
2018-11-26T04:14:51.444Z,3.30
2018-11-26T04:17:21.784Z,3.97
2018-11-26T04:19:52.161Z,4.10
2018-11-26T04:22:22.540Z,3.33
2018-11-26T04:24:52.884Z,5.00
2018-11-26T04:27:23.369Z,4.87
2018-11-26T04:29:53.778Z,3.50
2018-11-26T04:32:23.959Z,4.50
2018-11-26T04:34:54.348Z,4.40
2018-11-26T04:37:24.717Z,4.60
2018-11-26T04:39:55.165Z,4.40
2018-11-26T04:42:25.726Z,4.43
2018-11-26T04:44:55.865Z,4.40
2018-11-26T04:47:26.240Z,5.53
2018-11-26T04:49:56.626Z,5.03
2018-11-26T04:52:27.011Z,5.83
2018-11-26T04:54:57.300Z,5.40
2018-11-26T04:57:27.633Z,5.10
2018-11-26T04:59:58.166Z,5.20
2018-11-26T05:02:28.622Z,5.20
2018-11-26T05:04:58.733Z,5.50
2018-11-26T05:07:29.164Z,6.50
2018-11-26T05:09:59.508Z,6.07
2018-11-26T05:12:30.029Z,6.10
2018-11-26T05:15:00.319Z,5.53
2018-11-26T05:17:31.240Z,5.80
2018-11-26T05:20:01.540Z,6.10
2018-11-26T05:22:31.846Z,5.53
2018-11-26T05:25:02.175Z,5.73
2018-11-26T05:27:32.419Z,5.60
2018-11-26T05:30:02.654Z,5.50
2018-11-26T05:32:33.149Z,6.27
2018-11-26T05:35:03.735Z,5.50
2018-11-26T05:37:34.100Z,5.20
2018-11-26T05:40:04.693Z,4.70
2018-11-26T05:42:35.056Z,5.20
2018-11-26T05:45:06.196Z,6.53
2018-11-26T05:47:36.596Z,5.87
2018-11-26T05:50:09.307Z,5.60
2018-11-26T05:52:40.417Z,5.87
2018-11-26T05:55:13.387Z,5.70
2018-11-26T05:57:44.062Z,7.23
2018-11-26T06:00:19.768Z,6.90
2018-11-26T06:02:50.900Z,9.00
2018-11-26T06:05:21.342Z,7.33
2018-11-26T06:07:51.784Z,7.40
2018-11-26T06:10:22.202Z,8.03
2018-11-26T06:12:52.647Z,7.57
2018-11-26T06:15:23.069Z,8.00
2018-11-26T06:17:53.364Z,9.17
2018-11-26T06:20:23.826Z,8.87
2018-11-26T06:22:54.154Z,9.93
2018-11-26T06:25:24.563Z,8.13
2018-11-26T06:27:55.881Z,7.50
2018-11-26T06:30:26.139Z,6.53
2018-11-26T06:32:57.041Z,7.30
2018-11-26T06:35:27.373Z,6.83
2018-11-26T06:37:58.854Z,5.97
2018-11-26T06:40:29.208Z,6.03
2018-11-26T06:42:59.503Z,5.80
2018-11-26T06:45:29.929Z,6.50
2018-11-26T06:48:00.113Z,6.43
2018-11-26T06:50:30.545Z,7.40
2018-11-26T06:53:00.925Z,7.10
2018-11-26T06:55:31.229Z,8.50
2018-11-26T06:58:01.565Z,7.97
2018-11-26T07:00:31.892Z,9.73
2018-11-26T07:03:02.326Z,7.87
2018-11-26T07:05:33.046Z,8.10
2018-11-26T07:08:03.495Z,8.40
2018-11-26T07:10:33.669Z,8.67
2018-11-26T07:13:04.118Z,10.57
2018-11-26T07:15:34.439Z,13.13
2018-11-26T07:18:04.895Z,11.23
2018-11-26T07:20:35.420Z,9.67
2018-11-26T07:23:05.864Z,8.80
2018-11-26T07:25:36.160Z,9.53
2018-11-26T07:28:08.859Z,4.23
2018-11-26T07:30:39.599Z,4.30
2018-11-26T07:33:10.123Z,4.13
2018-11-26T07:35:40.662Z,9.20
2018-11-26T07:38:11.083Z,6.77
2018-11-26T07:40:41.573Z,5.43
2018-11-26T07:43:13.583Z,5.43
2018-11-26T07:45:43.858Z,2.83
2018-11-26T07:48:14.424Z,2.20
2018-11-26T07:50:44.819Z,2.03
2018-11-26T07:53:15.262Z,1.77
2018-11-26T07:55:48.566Z,1.73
2018-11-26T07:58:19.089Z,2.30
2018-11-26T08:00:49.553Z,2.27
2018-11-26T08:03:19.829Z,1.83
2018-11-26T08:05:50.128Z,1.67
2018-11-26T08:08:20.445Z,1.10
2018-11-26T08:10:50.933Z,1.10
2018-11-26T08:13:21.269Z,1.10
2018-11-26T08:15:51.646Z,1.10
2018-11-26T08:18:22.081Z,1.60
2018-11-26T08:20:52.980Z,1.70
2018-11-26T08:23:23.459Z,0.93
2018-11-26T08:25:53.972Z,1.20
2018-11-26T08:28:24.544Z,1.00
2018-11-26T08:30:54.718Z,1.20
2018-11-26T08:33:25.115Z,1.50
2018-11-26T08:37:00.094Z,1.47
2018-11-26T08:39:36.481Z,1.60
2018-11-26T08:42:11.994Z,1.40
2018-11-26T08:45:56.486Z,1.00
2018-11-26T08:48:28.081Z,1.27
2018-11-26T08:51:00.593Z,1.10
2018-11-26T08:53:31.100Z,0.90
2018-11-26T08:56:01.590Z,1.20
2018-11-26T08:58:31.806Z,1.57
2018-11-26T09:01:04.662Z,1.57
2018-11-26T09:03:40.842Z,2.10
2018-11-26T09:06:11.027Z,1.80
2018-11-26T09:08:41.317Z,1.40
2018-11-26T09:11:11.820Z,1.10
2018-11-26T09:13:42.362Z,1.00
2018-11-26T09:16:12.584Z,1.30
2018-11-26T09:18:42.980Z,1.33
2018-11-26T09:21:13.333Z,1.10
2018-11-26T09:23:43.733Z,0.93
2018-11-26T09:26:14.273Z,1.03
2018-11-26T09:28:44.891Z,1.00
2018-11-26T09:31:15.138Z,0.77
2018-11-26T09:33:45.378Z,1.10
2018-11-26T09:36:15.925Z,1.40
2018-11-26T09:38:46.391Z,0.80
2018-11-26T09:41:16.867Z,0.60
2018-11-26T09:43:47.139Z,0.80
2018-11-26T09:46:17.586Z,0.60
2018-11-26T09:48:47.961Z,0.57
2018-11-26T09:51:18.479Z,0.80
2018-11-26T09:53:48.815Z,0.67
2018-11-26T09:56:19.084Z,0.90
2018-11-26T09:58:49.472Z,1.93
2018-11-26T10:01:20.084Z,0.73
2018-11-26T10:03:50.564Z,0.80
2018-11-26T10:06:28.388Z,1.00
2018-11-26T10:08:58.792Z,1.00
2018-11-26T10:11:29.251Z,1.60
2018-11-26T10:13:59.396Z,0.90
2018-11-26T10:16:29.663Z,0.90
2018-11-26T10:19:00.094Z,1.00
2018-11-26T10:21:30.290Z,1.50
2018-11-26T10:24:00.881Z,1.70
2018-11-26T10:26:31.159Z,1.10
2018-11-26T10:29:01.503Z,1.30
2018-11-26T10:31:32.053Z,0.83
2018-11-26T10:34:02.201Z,1.40
2018-11-26T10:36:32.654Z,1.27
2018-11-26T10:39:02.929Z,1.23
2018-11-26T10:41:33.978Z,1.27
2018-11-26T10:44:04.313Z,0.90
2018-11-26T10:46:34.805Z,1.07
2018-11-26T10:49:05.316Z,2.17
2018-11-26T10:51:35.875Z,1.10
2018-11-26T10:54:06.129Z,0.80
2018-11-26T10:56:36.513Z,1.00
2018-11-26T10:59:06.944Z,0.90
2018-11-26T11:01:38.246Z,1.20
2018-11-26T11:04:08.850Z,2.13
2018-11-26T11:06:39.327Z,1.40
2018-11-26T11:09:10.329Z,0.93
2018-11-26T11:11:40.810Z,1.30
2018-11-26T11:14:11.227Z,1.23
2018-11-26T11:16:41.817Z,0.77
2018-11-26T11:19:12.043Z,1.20
2018-11-26T11:21:42.412Z,1.07
2018-11-26T11:24:12.779Z,1.20
2018-11-26T11:26:43.419Z,1.10
2018-11-26T11:29:13.882Z,1.80
2018-11-26T11:31:44.198Z,0.67
2018-11-26T11:34:14.558Z,1.07
2018-11-26T11:36:44.982Z,0.73
2018-11-26T11:39:17.171Z,1.40
2018-11-26T11:41:52.088Z,0.90
2018-11-26T11:44:24.716Z,0.90
2018-11-26T11:46:55.177Z,0.80
2018-11-26T11:49:25.580Z,1.43
2018-11-26T11:52:00.390Z,1.20
2018-11-26T11:54:35.058Z,0.90
2018-11-26T11:57:07.288Z,0.67
2018-11-26T11:59:37.753Z,1.40
2018-11-26T12:02:16.040Z,1.20
2018-11-26T12:04:49.587Z,0.80
2018-11-26T12:07:21.798Z,0.90
2018-11-26T12:09:52.155Z,0.90
2018-11-26T12:12:22.485Z,1.30
2018-11-26T12:14:52.768Z,1.10
2018-11-26T12:17:23.157Z,0.90
2018-11-26T12:19:53.518Z,1.10
2018-11-26T12:22:23.818Z,1.20
2018-11-26T12:24:54.255Z,1.43
2018-11-26T12:27:24.549Z,1.27
2018-11-26T12:29:54.970Z,1.60
2018-11-26T12:32:25.323Z,1.30
2018-11-26T12:34:55.561Z,0.83
2018-11-26T12:37:26.035Z,0.70
2018-11-26T12:39:56.384Z,1.10
2018-11-26T12:42:26.882Z,1.10
2018-11-26T12:44:57.429Z,0.83
2018-11-26T12:47:27.713Z,1.13
2018-11-26T12:49:57.977Z,1.10
2018-11-26T12:52:28.467Z,1.20
2018-11-26T12:54:58.608Z,0.90
2018-11-26T12:57:29.114Z,1.00
2018-11-26T13:00:00.258Z,0.90
2018-11-26T13:02:30.809Z,1.10
2018-11-26T13:05:01.248Z,1.00
2018-11-26T13:07:31.578Z,1.40
2018-11-26T13:10:01.920Z,1.03
2018-11-26T13:12:32.371Z,1.50
2018-11-26T13:15:02.630Z,1.60
2018-11-26T13:17:33.025Z,1.13
2018-11-26T13:20:03.628Z,0.87
2018-11-26T13:22:34.005Z,0.90
2018-11-26T13:25:04.432Z,0.93
2018-11-26T13:27:34.996Z,1.13
2018-11-26T13:30:08.624Z,0.80
2018-11-26T13:32:39.120Z,0.80
2018-11-26T13:35:11.810Z,0.93
2018-11-26T13:37:42.415Z,0.80
2018-11-26T13:40:16.933Z,1.63
2018-11-26T13:42:47.537Z,1.23
2018-11-26T13:45:41.519Z,1.10
2018-11-26T13:48:13.722Z,1.10
2018-11-26T13:50:48.594Z,0.90
2018-11-26T13:53:18.867Z,1.00
2018-11-26T13:55:49.222Z,1.30
2018-11-26T13:58:19.581Z,1.10
2018-11-26T14:00:50.176Z,1.00
2018-11-26T14:03:20.368Z,0.90
2018-11-26T14:05:50.636Z,0.83
2018-11-26T14:08:21.182Z,1.40
2018-11-26T14:10:51.289Z,0.80
2018-11-26T14:13:21.696Z,1.20
2018-11-26T14:15:51.941Z,1.70
2018-11-26T14:18:22.514Z,1.60
2018-11-26T14:20:52.780Z,1.60
2018-11-26T14:23:23.209Z,0.67
2018-11-26T14:25:53.541Z,0.80
2018-11-26T14:28:23.865Z,1.07
2018-11-26T14:30:54.295Z,1.50
2018-11-26T14:33:24.614Z,0.80
2018-11-26T14:35:55.103Z,0.87
2018-11-26T14:38:25.601Z,0.90
2018-11-26T14:40:56.824Z,1.10
2018-11-26T14:43:27.209Z,1.20
2018-11-26T14:45:57.594Z,1.33
2018-11-26T14:48:28.117Z,0.87
2018-11-26T14:50:58.449Z,1.13
2018-11-26T14:53:28.886Z,0.80
2018-11-26T14:55:59.227Z,0.90
2018-11-26T14:58:29.731Z,0.80
2018-11-26T15:01:00.016Z,0.90
2018-11-26T15:03:30.490Z,1.00
2018-11-26T15:06:01.022Z,0.97
2018-11-26T15:08:31.345Z,1.00
2018-11-26T15:11:01.694Z,1.37
2018-11-26T15:13:32.096Z,0.90
2018-11-26T15:16:02.495Z,1.20
2018-11-26T15:18:32.700Z,0.97
2018-11-26T15:21:02.958Z,1.37
2018-11-26T15:23:33.284Z,1.10
2018-11-26T15:26:03.713Z,1.20
2018-11-26T15:28:34.141Z,1.00
2018-11-26T15:31:04.391Z,0.87
2018-11-26T15:33:34.816Z,1.30
2018-11-26T15:36:05.212Z,1.30
2018-11-26T15:38:35.602Z,1.37
2018-11-26T15:41:05.937Z,1.30
2018-11-26T15:43:36.258Z,1.20
2018-11-26T15:46:06.922Z,1.13
2018-11-26T15:48:37.314Z,1.20
2018-11-26T15:51:08.082Z,1.40
2018-11-26T15:53:38.522Z,1.00
2018-11-26T15:56:09.476Z,1.20
2018-11-26T15:58:40.341Z,1.30
2018-11-26T16:01:10.817Z,1.50
2018-11-26T16:03:41.185Z,1.10
2018-11-26T16:06:11.496Z,1.00
2018-11-26T16:08:42.024Z,1.30
2018-11-26T16:11:12.503Z,1.23
2018-11-26T16:13:42.803Z,1.07
2018-11-26T16:16:13.102Z,1.23
2018-11-26T16:18:43.630Z,1.43
2018-11-26T16:21:14.066Z,0.87
2018-11-26T16:23:44.322Z,1.23
2018-11-26T16:26:14.777Z,1.20
2018-11-26T16:28:45.143Z,0.80
2018-11-26T16:31:15.610Z,1.17
2018-11-26T16:33:45.812Z,0.70
2018-11-26T16:36:16.148Z,0.80
2018-11-26T16:38:46.612Z,1.80
2018-11-26T16:41:17.038Z,2.27
2018-11-26T16:43:47.547Z,1.83
2018-11-26T16:46:17.789Z,1.40
2018-11-26T16:48:48.222Z,1.17
2018-11-26T16:51:18.569Z,0.57
2018-11-26T16:53:49.094Z,0.77
2018-11-26T16:56:19.485Z,0.80
2018-11-26T16:58:49.801Z,1.30
2018-11-26T17:01:20.246Z,1.67
2018-11-26T17:03:50.864Z,1.13
2018-11-26T17:06:21.390Z,1.17
2018-11-26T17:08:51.838Z,1.40
2018-11-26T17:11:22.221Z,0.70
2018-11-26T17:13:52.654Z,0.90
2018-11-26T17:16:23.101Z,1.10
2018-11-26T17:18:53.409Z,1.87
2018-11-26T17:21:23.822Z,1.60
2018-11-26T17:23:54.279Z,2.70
2018-11-26T17:26:24.802Z,1.00
2018-11-26T17:28:55.281Z,0.70
2018-11-26T17:31:25.629Z,1.00
2018-11-26T17:33:56.065Z,0.87
2018-11-26T17:36:26.259Z,1.10
2018-11-26T17:38:56.694Z,1.10
2018-11-26T17:41:27.010Z,0.70
2018-11-26T17:43:57.354Z,1.07
2018-11-26T17:46:27.962Z,0.80
2018-11-26T17:48:58.351Z,1.00
2018-11-26T17:51:28.836Z,0.80
2018-11-26T17:53:59.210Z,1.10
2018-11-26T17:56:29.806Z,0.70
2018-11-26T17:59:00.425Z,0.90
2018-11-26T18:01:37.383Z,1.23
2018-11-26T18:04:09.585Z,1.07
2018-11-26T18:06:40.199Z,0.87
2018-11-26T18:09:13.145Z,1.03
2018-11-26T18:11:44.475Z,0.80
2018-11-26T18:14:15.129Z,1.23
2018-11-26T18:16:46.106Z,0.90
2018-11-26T18:19:16.697Z,1.10
2018-11-26T18:21:47.837Z,1.00
2018-11-26T18:24:18.407Z,1.10
2018-11-26T18:26:49.514Z,0.77
2018-11-26T18:29:20.073Z,1.20
2018-11-26T18:31:50.655Z,1.30
2018-11-26T18:34:20.982Z,1.40
2018-11-26T18:36:51.279Z,1.47
2018-11-26T18:39:21.692Z,1.20
2018-11-26T18:41:52.147Z,0.93
2018-11-26T18:44:22.515Z,1.20
2018-11-26T18:46:53.379Z,1.73
2018-11-26T18:49:23.886Z,1.00
2018-11-26T18:51:54.265Z,1.20
2018-11-26T18:54:24.857Z,1.03
2018-11-26T18:56:55.212Z,1.37
2018-11-26T18:59:25.527Z,1.20
2018-11-26T19:01:56.038Z,1.70
2018-11-26T19:04:26.430Z,1.03
2018-11-26T19:06:56.938Z,1.90
2018-11-26T19:09:27.410Z,1.30
2018-11-26T19:11:57.917Z,2.00
2018-11-26T19:14:28.707Z,1.93
2018-11-26T19:16:59.123Z,2.10
2018-11-26T19:19:29.694Z,1.70
2018-11-26T19:22:00.144Z,1.10
2018-11-26T19:24:30.477Z,1.83
2018-11-26T19:27:00.790Z,1.37
2018-11-26T19:29:31.310Z,1.47
2018-11-26T19:32:01.482Z,1.30
2018-11-26T19:34:31.767Z,1.27
2018-11-26T19:37:02.226Z,1.27
2018-11-26T19:39:32.467Z,1.10
2018-11-26T19:42:02.662Z,0.97
2018-11-26T19:44:32.911Z,1.17
2018-11-26T19:47:03.491Z,1.30
2018-11-26T19:49:33.918Z,1.80
2018-11-26T19:52:04.429Z,1.50
2018-11-26T19:54:34.925Z,1.43
2018-11-26T19:57:05.369Z,1.57
2018-11-26T19:59:35.860Z,1.20
2018-11-26T20:02:06.213Z,1.00
2018-11-26T20:04:48.445Z,1.70
2018-11-26T20:07:18.986Z,1.60
2018-11-26T20:09:49.247Z,1.00
2018-11-26T20:12:19.596Z,1.43
2018-11-26T20:14:50.103Z,1.40
2018-11-26T20:17:20.325Z,1.40
2018-11-26T20:19:50.834Z,1.03
2018-11-26T20:22:21.348Z,2.00
2018-11-26T20:24:51.778Z,1.30
2018-11-26T20:27:22.227Z,1.40
2018-11-26T20:29:52.590Z,1.33
2018-11-26T20:32:23.025Z,1.40
2018-11-26T20:34:53.507Z,1.20
2018-11-26T20:37:24.020Z,1.37
2018-11-26T20:39:54.665Z,1.73
2018-11-26T20:42:25.161Z,0.90
2018-11-26T20:44:55.349Z,1.20
2018-11-26T20:47:25.768Z,1.10
2018-11-26T20:49:56.196Z,1.40
2018-11-26T20:52:26.801Z,1.30
2018-11-26T20:54:57.407Z,1.50
2018-11-26T20:57:27.697Z,1.10
2018-11-26T20:59:58.075Z,1.60
2018-11-26T21:02:28.481Z,1.93
2018-11-26T21:04:58.838Z,1.40
2018-11-26T21:07:29.077Z,1.10
2018-11-26T21:09:59.506Z,1.10
2018-11-26T21:12:30.046Z,1.00
2018-11-26T21:15:00.427Z,1.27
2018-11-26T21:17:30.671Z,1.20
2018-11-26T21:20:01.079Z,1.30
2018-11-26T21:22:31.602Z,1.00
2018-11-26T21:25:01.890Z,1.27
2018-11-26T21:27:32.237Z,1.20
2018-11-26T21:30:02.575Z,0.93
2018-11-26T21:32:32.876Z,1.70
2018-11-26T21:35:03.227Z,1.17
2018-11-26T21:37:33.425Z,1.30
2018-11-26T21:40:04.004Z,1.53
2018-11-26T21:42:34.428Z,1.53
2018-11-26T21:45:05.346Z,1.10
2018-11-26T21:47:35.621Z,1.10
2018-11-26T21:50:07.271Z,1.20
2018-11-26T21:52:37.759Z,1.17
2018-11-26T21:55:11.620Z,0.90
2018-11-26T21:57:42.374Z,0.90
2018-11-26T22:00:21.930Z,1.10
2018-11-26T22:02:52.725Z,1.13
2018-11-26T22:05:23.187Z,2.13
2018-11-26T22:07:53.384Z,0.80
2018-11-26T22:10:24.595Z,0.87
2018-11-26T22:12:56.286Z,0.93
2018-11-26T22:15:26.864Z,1.00
2018-11-26T22:17:57.146Z,1.00
2018-11-26T22:20:29.280Z,0.90
2018-11-26T22:22:59.751Z,1.10
2018-11-26T22:25:30.327Z,1.43
2018-11-26T22:28:00.601Z,1.47
2018-11-26T22:30:33.881Z,1.20
2018-11-26T22:33:04.213Z,1.40
2018-11-26T22:35:34.706Z,1.07
2018-11-26T22:38:05.181Z,1.40
2018-11-26T22:40:35.398Z,1.60
2018-11-26T22:43:05.830Z,1.53
2018-11-26T22:45:36.171Z,2.10
2018-11-26T22:48:10.982Z,1.07
2018-11-26T22:50:42.970Z,0.93
2018-11-26T22:53:13.261Z,0.67
2018-11-26T22:55:44.324Z,1.20
2018-11-26T22:58:15.470Z,0.70
2018-11-26T23:00:54.921Z,0.93
2018-11-26T23:03:26.780Z,1.10
2018-11-26T23:05:57.186Z,1.70
2018-11-26T23:08:34.261Z,1.43
2018-11-26T23:11:04.697Z,1.20
2018-11-26T23:13:34.918Z,0.93
2018-11-26T23:16:05.194Z,0.90
2018-11-26T23:18:35.547Z,0.90
2018-11-26T23:21:06.000Z,1.17
2018-11-26T23:23:36.420Z,1.03
2018-11-26T23:26:06.966Z,0.90
2018-11-26T23:28:37.220Z,0.90
2018-11-26T23:31:07.802Z,0.70
2018-11-26T23:33:38.268Z,0.90
2018-11-26T23:36:09.955Z,1.70
2018-11-26T23:38:40.265Z,1.33
2018-11-26T23:41:10.629Z,0.97
2018-11-26T23:43:41.051Z,1.03
2018-11-26T23:46:11.308Z,1.53
2018-11-26T23:48:41.570Z,1.30
2018-11-26T23:51:12.137Z,0.63
2018-11-26T23:53:42.559Z,1.03
2018-11-26T23:56:12.765Z,0.97
2018-11-26T23:58:43.135Z,0.80
